createdAt,value
2022-08-09T00:01:10.671Z,102146.13
2022-08-09T00:04:06.192Z,102147.13
2022-08-09T00:06:29.021Z,102140.06
2022-08-09T00:08:59.042Z,102141.03
2022-08-09T00:11:27.837Z,102141.09
2022-08-09T00:14:21.868Z,102157.38
2022-08-09T00:16:54.905Z,102147.59
2022-08-09T00:19:21.693Z,102143.19
2022-08-09T00:21:56.655Z,102152.25
2022-08-09T00:24:27.548Z,102154.09
2022-08-09T00:26:54.974Z,102145.16
2022-08-09T00:30:10.159Z,102151.44
2022-08-09T00:32:08.536Z,102154.25
2022-08-09T00:34:39.576Z,102150.72
2022-08-09T00:37:13.235Z,102150.84
2022-08-09T00:40:12.078Z,102150.97
2022-08-09T00:44:24.739Z,102147.53
2022-08-09T00:45:16.299Z,102156.69
2022-08-09T00:47:43.619Z,102146.97
2022-08-09T00:50:14.659Z,102150.66
2022-08-09T00:52:42.188Z,102151.59
2022-08-09T00:55:16.795Z,102158.91
2022-08-09T00:57:59.268Z,102153.69
2022-08-09T01:00:27.516Z,102157.41
2022-08-09T01:03:15.274Z,102153.91
2022-08-09T01:06:18.288Z,102157.56
2022-08-09T01:09:20.637Z,102147.00
2022-08-09T01:12:18.729Z,102150.69
2022-08-09T01:15:05.848Z,102153.41
2022-08-09T01:17:44.578Z,102158.84
2022-08-09T01:20:50.059Z,102156.34
2022-08-09T01:24:01.292Z,102153.84
2022-08-09T01:26:33.319Z,102160.09
2022-08-09T01:29:03.997Z,102161.03
2022-08-09T01:32:28.116Z,102161.03
2022-08-09T01:34:22.644Z,102164.63
2022-08-09T01:36:50.874Z,102160.13
2022-08-09T01:39:20.551Z,102166.41
2022-08-09T01:41:53.784Z,102158.34
2022-08-09T01:44:29.342Z,102157.50
2022-08-09T01:46:59.870Z,102153.94
2022-08-09T01:49:31.925Z,102149.47
2022-08-09T01:52:14.826Z,102147.72
2022-08-09T01:54:56.792Z,102151.31
2022-08-09T01:57:40.048Z,102155.84
2022-08-09T02:00:19.259Z,102149.63
2022-08-09T02:03:02.927Z,102144.31
2022-08-09T02:05:37.758Z,102151.50
2022-08-09T02:08:39.794Z,102140.75
2022-08-09T02:11:16.711Z,102153.31
2022-08-09T02:14:06.512Z,102151.59
2022-08-09T02:16:52.896Z,102147.19
2022-08-09T02:19:22.901Z,102148.13
2022-08-09T02:21:55.192Z,102142.81
2022-08-09T02:24:27.150Z,102149.16
2022-08-09T02:26:58.919Z,102150.16
2022-08-09T02:29:31.375Z,102143.91
2022-08-09T02:32:04.096Z,102147.56
2022-08-09T02:34:40.506Z,102147.63
2022-08-09T02:37:14.798Z,102142.31
2022-08-09T02:40:01.714Z,102150.47
2022-08-09T02:42:37.525Z,102149.63
2022-08-09T02:45:16.935Z,102150.53
2022-08-09T02:47:46.462Z,102149.63
2022-08-09T02:50:56.157Z,102141.56
2022-08-09T02:53:34.984Z,102144.25
2022-08-09T02:56:04.556Z,102151.44
2022-08-09T02:58:36.572Z,102147.91
2022-08-09T03:01:08.168Z,102162.28
2022-08-09T03:04:17.563Z,102157.84
2022-08-09T03:06:27.557Z,102160.63
2022-08-09T03:08:55.526Z,102154.38
2022-08-09T03:12:05.239Z,102160.69
2022-08-09T03:14:12.904Z,102153.56
2022-08-09T03:16:47.472Z,102154.50
2022-08-09T03:19:58.308Z,102159.00
2022-08-09T03:22:11.728Z,102168.94
2022-08-09T03:24:51.689Z,102166.25
2022-08-09T03:27:21.441Z,102161.78
2022-08-09T03:29:58.140Z,102158.25
2022-08-09T03:32:30.521Z,102162.75
2022-08-09T03:34:58.741Z,102159.16
2022-08-09T03:37:56.589Z,102169.97
2022-08-09T03:40:13.477Z,102174.47
2022-08-09T03:42:45.510Z,102160.19
2022-08-09T03:45:13.608Z,102163.78
2022-08-09T03:47:46.237Z,102167.38
2022-08-09T03:50:18.707Z,102154.84
2022-08-09T03:52:58.267Z,102162.06
2022-08-09T03:55:26.677Z,102158.50
2022-08-09T03:58:03.376Z,102162.13
2022-08-09T04:00:44.439Z,102154.97
2022-08-09T04:03:19.609Z,102146.91
2022-08-09T04:05:52.073Z,102151.41
2022-08-09T04:08:19.149Z,102155.94
2022-08-09T04:10:55.998Z,102160.41
2022-08-09T04:14:37.503Z,102157.72
2022-08-09T04:16:19.290Z,102173.94
2022-08-09T04:18:47.252Z,102163.19
2022-08-09T04:21:16.102Z,102166.78
2022-08-09T04:23:54.540Z,102170.44
2022-08-09T04:26:25.122Z,102174.94
2022-08-09T04:29:10.862Z,102183.97
2022-08-09T04:31:47.400Z,102173.25
2022-08-09T04:34:19.014Z,102188.50
2022-08-09T04:36:57.635Z,102185.81
2022-08-09T04:39:24.512Z,102189.38
2022-08-09T04:41:51.446Z,102186.69
2022-08-09T04:44:18.488Z,102192.06
2022-08-09T04:46:58.454Z,102191.13
2022-08-09T04:49:53.653Z,102196.50
2022-08-09T04:52:26.921Z,102192.91
2022-08-09T04:54:56.531Z,102208.06
2022-08-09T04:57:25.014Z,102206.19
2022-08-09T04:59:54.253Z,102210.53
2022-08-09T05:02:22.156Z,102213.09
2022-08-09T05:04:48.989Z,102211.22
2022-08-09T05:07:22.548Z,102211.97
2022-08-09T05:09:50.280Z,102210.03
2022-08-09T05:12:17.341Z,102211.50
2022-08-09T05:14:44.159Z,102211.09
2022-08-09T05:17:15.216Z,102214.19
2022-08-09T05:19:58.531Z,102201.84
2022-08-09T05:22:36.065Z,102202.91
2022-08-09T05:25:12.212Z,102202.97
2022-08-09T05:27:46.505Z,102213.81
2022-08-09T05:30:17.654Z,102205.56
2022-08-09T05:32:51.143Z,102205.47
2022-08-09T05:35:22.085Z,102204.41
2022-08-09T05:37:50.441Z,102197.81
2022-08-09T05:40:18.319Z,102204.72
2022-08-09T05:42:46.084Z,102207.28
2022-08-09T05:45:14.507Z,102205.50
2022-08-09T05:47:51.593Z,102213.84
2022-08-09T05:50:36.100Z,102212.75
2022-08-09T05:53:32.530Z,102219.50
2022-08-09T05:55:58.465Z,102217.78
2022-08-09T05:58:25.302Z,102223.13
2022-08-09T06:00:53.715Z,102220.94
2022-08-09T06:03:20.741Z,102224.44
2022-08-09T06:05:54.512Z,102224.38
2022-08-09T06:08:25.222Z,102223.84
2022-08-09T06:10:57.005Z,102222.44
2022-08-09T06:13:25.603Z,102228.16
2022-08-09T06:15:55.295Z,102232.91
2022-08-09T06:18:24.913Z,102235.47
2022-08-09T06:20:57.332Z,102239.69
2022-08-09T06:23:57.492Z,102228.19
2022-08-09T06:26:20.143Z,102227.84
2022-08-09T06:29:01.059Z,102227.25
2022-08-09T06:31:40.034Z,102218.50
2022-08-09T06:34:23.019Z,102221.88
2022-08-09T06:36:59.441Z,102219.88
2022-08-09T06:39:48.790Z,102232.72
2022-08-09T06:42:24.886Z,102234.44
2022-08-09T06:44:55.557Z,102237.53
2022-08-09T06:47:24.615Z,102245.00
2022-08-09T06:50:13.571Z,102239.41
2022-08-09T06:52:48.569Z,102237.59
2022-08-09T06:55:23.173Z,102239.22
2022-08-09T06:58:02.795Z,102243.06
2022-08-09T07:00:49.456Z,102236.97
2022-08-09T07:03:27.742Z,102239.06
2022-08-09T07:06:03.677Z,102235.78
2022-08-09T07:08:33.453Z,102240.25
2022-08-09T07:11:03.534Z,102240.09
2022-08-09T07:13:31.006Z,102234.78
2022-08-09T07:16:42.790Z,102245.34
2022-08-09T07:18:59.887Z,102245.22
2022-08-09T07:21:26.680Z,102246.81
2022-08-09T07:23:58.524Z,102246.38
2022-08-09T07:26:25.960Z,102254.84
2022-08-09T07:29:09.310Z,102246.97
2022-08-09T07:31:45.544Z,102249.50
2022-08-09T07:34:20.143Z,102250.00
2022-08-09T07:36:49.454Z,102253.53
2022-08-09T07:39:19.771Z,102252.72
2022-08-09T07:41:53.909Z,102260.22
2022-08-09T07:44:30.296Z,102262.03
2022-08-09T07:47:09.867Z,102268.13
2022-08-09T07:49:52.414Z,102267.84
2022-08-09T07:52:24.052Z,102269.06
2022-08-09T07:54:51.573Z,102261.41
2022-08-09T07:57:20.978Z,102265.28
2022-08-09T08:00:02.676Z,102260.03
2022-08-09T08:02:30.833Z,102260.00
2022-08-09T08:04:57.870Z,102255.84
2022-08-09T08:08:42.507Z,102245.50
2022-08-09T08:10:12.690Z,102247.53
2022-08-09T08:12:45.019Z,102241.59
2022-08-09T08:15:17.305Z,102238.06
2022-08-09T08:17:53.211Z,102238.88
2022-08-09T08:20:29.064Z,102245.22
2022-08-09T08:23:03.533Z,102255.00
2022-08-09T08:25:44.546Z,102238.47
2022-08-09T08:28:14.978Z,102241.50
2022-08-09T08:30:45.733Z,102250.66
2022-08-09T08:33:23.012Z,102248.91
2022-08-09T08:36:00.266Z,102246.00
2022-08-09T08:38:29.527Z,102252.59
2022-08-09T08:40:57.746Z,102243.84
2022-08-09T08:43:27.247Z,102249.22
2022-08-09T08:46:31.548Z,102255.97
2022-08-09T08:48:53.596Z,102256.44
2022-08-09T08:51:22.825Z,102257.00
2022-08-09T08:54:03.530Z,102240.25
2022-08-09T08:56:43.359Z,102247.75
2022-08-09T08:59:19.786Z,102245.34
2022-08-09T09:01:56.860Z,102245.63
2022-08-09T09:04:37.787Z,102249.66
2022-08-09T09:07:15.787Z,102256.28
2022-08-09T09:10:01.454Z,102253.97
2022-08-09T09:12:34.217Z,102249.97
2022-08-09T09:15:06.009Z,102257.88
2022-08-09T09:17:49.212Z,102253.72
2022-08-09T09:20:21.666Z,102259.69
2022-08-09T09:23:02.213Z,102257.28
2022-08-09T09:26:01.911Z,102263.94
2022-08-09T09:29:01.780Z,102257.72
2022-08-09T09:32:03.373Z,102260.44
2022-08-09T09:34:18.092Z,102260.28
2022-08-09T09:36:51.157Z,102259.38
2022-08-09T09:39:23.589Z,102258.50
2022-08-09T09:42:27.606Z,102257.50
2022-08-09T09:45:14.478Z,102263.31
2022-08-09T09:47:56.409Z,102272.03
2022-08-09T09:50:49.808Z,102262.84
2022-08-09T09:53:57.846Z,102270.88
2022-08-09T09:56:20.167Z,102263.50
2022-08-09T09:58:58.201Z,102256.91
2022-08-09T10:01:31.013Z,102253.06
2022-08-09T10:04:22.982Z,102253.53
2022-08-09T10:06:57.548Z,102247.94
2022-08-09T10:09:24.410Z,102236.03
2022-08-09T10:12:14.523Z,102236.47
2022-08-09T10:14:49.364Z,102238.72
2022-08-09T10:17:50.875Z,102237.50
2022-08-09T10:20:32.875Z,102235.53
2022-08-09T10:23:22.028Z,102232.66
2022-08-09T10:26:07.414Z,102227.13
2022-08-09T10:28:40.230Z,102224.47
2022-08-09T10:34:09.204Z,102232.19
2022-08-09T10:36:50.012Z,102235.56
2022-08-09T10:39:19.624Z,102223.22
2022-08-09T10:41:47.564Z,102222.75
2022-08-09T10:44:19.350Z,102220.38
2022-08-09T10:47:20.569Z,102227.25
2022-08-09T10:51:03.456Z,102220.84
2022-08-09T10:53:39.516Z,102227.59
2022-08-09T10:56:25.474Z,102228.53
2022-08-09T10:58:55.119Z,102233.81
2022-08-09T11:03:13.503Z,102229.91
2022-08-09T11:04:31.266Z,102228.84
2022-08-09T11:07:00.311Z,102229.66
2022-08-09T11:09:48.158Z,102220.41
2022-08-09T11:12:29.763Z,102226.03
2022-08-09T11:15:01.510Z,102232.88
2022-08-09T11:17:32.560Z,102229.66
2022-08-09T11:20:22.101Z,102227.19
2022-08-09T11:22:57.252Z,102237.03
2022-08-09T11:25:44.759Z,102231.28
2022-08-09T11:28:38.704Z,102230.78
2022-08-09T11:31:49.287Z,102228.47
2022-08-09T11:34:44.049Z,102231.72
2022-08-09T11:37:25.804Z,102224.91
2022-08-09T11:40:07.649Z,102217.03
2022-08-09T11:42:53.194Z,102220.94
2022-08-09T11:45:42.059Z,102222.19
2022-08-09T11:48:19.376Z,102219.91
2022-08-09T11:52:48.497Z,102215.78
2022-08-09T11:53:58.759Z,102214.13
2022-08-09T11:56:41.788Z,102209.19
2022-08-09T11:59:11.692Z,102209.69
2022-08-09T12:02:17.229Z,102203.03
2022-08-09T12:04:37.148Z,102198.19
2022-08-09T12:07:07.825Z,102201.41
2022-08-09T12:09:36.459Z,102203.81
2022-08-09T12:12:28.796Z,102201.31
2022-08-09T12:15:04.341Z,102190.34
2022-08-09T12:17:44.283Z,102183.50
2022-08-09T12:20:23.778Z,102191.16
2022-08-09T12:22:57.743Z,102188.88
2022-08-09T12:25:35.992Z,102189.41
2022-08-09T12:29:14.070Z,102187.06
2022-08-09T12:31:11.210Z,102171.16
2022-08-09T12:34:00.973Z,102170.53
2022-08-09T12:36:33.748Z,102163.66
2022-08-09T12:39:03.607Z,102167.66
2022-08-09T12:41:39.159Z,102169.06
2022-08-09T12:44:10.004Z,102161.47
2022-08-09T12:46:48.563Z,102158.13
2022-08-09T12:49:17.143Z,102157.59
2022-08-09T12:52:01.147Z,102152.47
2022-08-09T12:55:03.176Z,102157.69
2022-08-09T12:57:46.959Z,102162.88
2022-08-09T13:00:25.583Z,102155.44
2022-08-09T13:02:58.855Z,102147.84
2022-08-09T13:05:51.767Z,102138.28
2022-08-09T13:08:40.596Z,102137.72
2022-08-09T13:11:22.743Z,102132.78
2022-08-09T13:14:40.697Z,102132.31
2022-08-09T13:16:49.391Z,102130.75
2022-08-09T13:20:09.096Z,102125.50
2022-08-09T13:22:36.658Z,102132.66
2022-08-09T13:25:13.866Z,102128.06
2022-08-09T13:27:48.709Z,102132.75
2022-08-09T13:30:48.851Z,102139.06
2022-08-09T13:33:11.558Z,102140.19
2022-08-09T13:36:24.665Z,102143.41
2022-08-09T13:38:32.984Z,102146.06
2022-08-09T13:41:58.214Z,102136.69
2022-08-09T13:44:13.528Z,102135.59
2022-08-09T13:47:29.049Z,102129.09
2022-08-09T13:49:37.802Z,102128.00
2022-08-09T13:52:09.026Z,102132.13
2022-08-09T13:54:41.725Z,102133.56
2022-08-09T13:57:35.478Z,102132.53
2022-08-09T14:00:04.983Z,102120.34
2022-08-09T14:02:32.915Z,102114.41
2022-08-09T14:05:03.456Z,102113.13
2022-08-09T14:07:41.109Z,102113.69
2022-08-09T14:10:17.523Z,102121.53
2022-08-09T14:12:56.814Z,102108.50
2022-08-09T14:16:10.492Z,102115.53
2022-08-09T14:18:19.772Z,102120.84
2022-08-09T14:20:57.025Z,102116.13
2022-08-09T14:23:39.958Z,102118.78
2022-08-09T14:26:07.888Z,102114.78
2022-08-09T14:28:37.408Z,102119.88
2022-08-09T14:31:04.367Z,102117.91
2022-08-09T14:33:31.309Z,102112.81
2022-08-09T14:36:20.725Z,102110.38
2022-08-09T14:38:52.606Z,102122.41
2022-08-09T14:41:26.762Z,102115.38
2022-08-09T14:44:07.476Z,102115.53
2022-08-09T14:47:03.254Z,102111.38
2022-08-09T14:49:26.756Z,102108.94
2022-08-09T14:51:58.914Z,102116.56
2022-08-09T14:54:27.675Z,102112.13
2022-08-09T14:56:58.969Z,102110.41
2022-08-09T14:59:28.599Z,102105.78
2022-08-09T15:01:55.989Z,102111.97
2022-08-09T15:04:23.684Z,102106.38
2022-08-09T15:06:51.749Z,102101.69
2022-08-09T15:10:03.517Z,102104.44
2022-08-09T15:12:08.120Z,102101.69
2022-08-09T15:14:38.577Z,102101.69
2022-08-09T15:17:09.643Z,102099.94
2022-08-09T15:19:37.088Z,102107.16
2022-08-09T15:22:26.174Z,102108.22
2022-08-09T15:24:54.389Z,102096.59
2022-08-09T15:27:21.943Z,102099.34
2022-08-09T15:30:57.552Z,102100.31
2022-08-09T15:32:36.458Z,102097.03
2022-08-09T15:35:39.987Z,102091.72
2022-08-09T15:38:03.983Z,102095.44
2022-08-09T15:40:43.703Z,102089.19
2022-08-09T15:43:13.624Z,102092.91
2022-08-09T15:46:08.046Z,102100.34
2022-08-09T15:48:31.739Z,102099.88
2022-08-09T15:51:00.707Z,102087.38
2022-08-09T15:54:04.424Z,102086.78
2022-08-09T15:56:29.039Z,102089.72
2022-08-09T15:58:58.593Z,102089.81
2022-08-09T16:01:25.957Z,102087.19
2022-08-09T16:03:52.761Z,102089.94
2022-08-09T16:06:29.545Z,102087.28
2022-08-09T16:09:04.873Z,102086.31
2022-08-09T16:11:33.226Z,102084.47
2022-08-09T16:14:06.104Z,102085.41
2022-08-09T16:16:41.883Z,102081.88
2022-08-09T16:19:13.467Z,102079.28
2022-08-09T16:21:43.056Z,102089.34
2022-08-09T16:24:20.021Z,102083.06
2022-08-09T16:27:01.258Z,102077.78
2022-08-09T16:29:36.987Z,102086.97
2022-08-09T16:32:17.804Z,102089.81
2022-08-09T16:34:55.170Z,102091.75
2022-08-09T16:37:55.257Z,102091.81
2022-08-09T16:40:13.319Z,102091.06
2022-08-09T16:42:45.074Z,102081.09
2022-08-09T16:45:17.446Z,102081.19
2022-08-09T16:48:39.644Z,102084.03
2022-08-09T16:50:34.414Z,102085.19
2022-08-09T16:53:02.621Z,102089.78
2022-08-09T16:55:58.255Z,102088.09
2022-08-09T16:58:18.435Z,102085.47
2022-08-09T17:00:46.693Z,102082.81
2022-08-09T17:03:22.192Z,102087.56
2022-08-09T17:06:06.614Z,102081.44
2022-08-09T17:08:44.245Z,102083.44
2022-08-09T17:11:24.457Z,102091.75
2022-08-09T17:14:01.312Z,102088.13
2022-08-09T17:16:28.847Z,102077.28
2022-08-09T17:18:56.540Z,102071.94
2022-08-09T17:21:25.232Z,102089.38
2022-08-09T17:24:26.990Z,102085.88
2022-08-09T17:26:42.945Z,102087.88
2022-08-09T17:29:20.267Z,102083.56
2022-08-09T17:31:49.328Z,102084.56
2022-08-09T17:35:00.890Z,102089.16
2022-08-09T17:37:04.282Z,102083.84
2022-08-09T17:39:52.933Z,102077.63
2022-08-09T17:42:41.337Z,102085.00
2022-08-09T17:45:06.739Z,102084.31
2022-08-09T17:47:49.947Z,102092.59
2022-08-09T17:50:35.972Z,102091.81
2022-08-09T17:53:19.688Z,102100.16
2022-08-09T17:55:54.083Z,102098.59
2022-08-09T17:58:24.335Z,102093.41
2022-08-09T18:00:58.391Z,102100.81
2022-08-09T18:03:26.011Z,102103.78
2022-08-09T18:05:56.241Z,102097.63
2022-08-09T18:08:27.677Z,102105.00
2022-08-09T18:11:02.117Z,102107.03
2022-08-09T18:13:38.947Z,102118.16
2022-08-09T18:16:29.133Z,102118.41
2022-08-09T18:18:59.387Z,102125.88
2022-08-09T18:21:40.728Z,102114.44
2022-08-09T18:24:14.441Z,102115.66
2022-08-09T18:26:46.349Z,102117.75
2022-08-09T18:30:34.597Z,102129.81
2022-08-09T18:32:07.215Z,102133.75
2022-08-09T18:34:36.245Z,102126.88
2022-08-09T18:37:04.074Z,102130.81
2022-08-09T18:39:32.295Z,102128.44
2022-08-09T18:42:05.294Z,102127.81
2022-08-09T18:44:35.530Z,102129.91
2022-08-09T18:47:08.155Z,102130.22
2022-08-09T18:49:43.241Z,102122.88
2022-08-09T18:52:15.878Z,102127.53
2022-08-09T18:54:49.641Z,102129.53
2022-08-09T18:57:22.296Z,102128.91
2022-08-09T18:59:55.500Z,102136.47
2022-08-09T19:02:32.265Z,102135.84
2022-08-09T19:05:14.762Z,102138.88
2022-08-09T19:08:03.652Z,102150.09
2022-08-09T19:10:37.280Z,102150.44
2022-08-09T19:13:20.979Z,102145.28
2022-08-09T19:15:52.594Z,102155.53
2022-08-09T19:18:33.975Z,102153.16
2022-08-09T19:21:10.489Z,102144.38
2022-08-09T19:24:32.452Z,102150.94
2022-08-09T19:26:32.077Z,102145.88
2022-08-09T19:29:03.265Z,102152.44
2022-08-09T19:31:45.546Z,102152.72
2022-08-09T19:34:21.583Z,102158.47
2022-08-09T19:36:54.356Z,102158.69
2022-08-09T19:39:29.106Z,102158.00
2022-08-09T19:42:14.524Z,102150.22
2022-08-09T19:44:49.522Z,102146.84
2022-08-09T19:47:22.591Z,102148.91
2022-08-09T19:50:07.978Z,102156.41
2022-08-09T19:52:37.356Z,102155.81
2022-08-09T19:55:17.462Z,102156.06
2022-08-09T19:57:46.388Z,102153.56
2022-08-09T20:00:16.159Z,102156.50
2022-08-09T20:04:07.616Z,102160.41
2022-08-09T20:05:46.072Z,102159.75
2022-08-09T20:08:16.157Z,102162.28
2022-08-09T20:10:52.260Z,102163.16
2022-08-09T20:13:20.708Z,102173.34
2022-08-09T20:16:38.603Z,102167.25
2022-08-09T20:18:35.368Z,102168.34
2022-08-09T20:21:03.208Z,102164.03
2022-08-09T20:23:38.496Z,102168.72
2022-08-09T20:26:09.811Z,102159.88
2022-08-09T20:28:47.623Z,102158.34
2022-08-09T20:31:15.847Z,102158.53
2022-08-09T20:33:43.983Z,102155.13
2022-08-09T20:36:11.551Z,102156.22
2022-08-09T20:41:34.847Z,102152.13
2022-08-09T20:44:10.555Z,102155.06
2022-08-09T20:46:42.729Z,102157.97
2022-08-09T20:49:13.067Z,102154.56
2022-08-09T20:51:42.159Z,102151.16
2022-08-09T20:54:16.472Z,102163.94
2022-08-09T20:56:46.927Z,102169.66
2022-08-09T20:59:17.276Z,102176.13
2022-08-09T21:01:51.286Z,102173.59
2022-08-09T21:05:51.484Z,102174.69
2022-08-09T21:07:11.533Z,102182.13
2022-08-09T21:09:45.918Z,102185.91
2022-08-09T21:12:23.444Z,102181.56
2022-08-09T21:14:50.301Z,102187.13
2022-08-09T21:18:29.569Z,102195.31
2022-08-09T21:20:22.342Z,102179.16
2022-08-09T21:22:54.251Z,102179.31
2022-08-09T21:25:44.077Z,102185.72
2022-08-09T21:28:33.602Z,102187.72
2022-08-09T21:31:19.456Z,102185.16
2022-08-09T21:33:50.944Z,102199.66
2022-08-09T21:36:23.168Z,102188.00
2022-08-09T21:38:57.273Z,102191.63
2022-08-09T21:42:03.526Z,102191.78
2022-08-09T21:44:15.485Z,102195.44
2022-08-09T21:47:01.873Z,102193.75
2022-08-09T21:49:28.826Z,102200.09
2022-08-09T21:52:17.180Z,102197.53
2022-08-09T21:55:02.782Z,102206.59
2022-08-09T21:57:38.713Z,102201.34
2022-08-09T22:00:33.812Z,102198.81
2022-08-09T22:03:07.851Z,102197.16
2022-08-09T22:05:46.220Z,102199.13
2022-08-09T22:08:18.196Z,102201.91
2022-08-09T22:11:49.773Z,102198.44
2022-08-09T22:13:36.970Z,102196.78
2022-08-09T22:16:09.239Z,102197.72
2022-08-09T22:18:54.553Z,102197.91
2022-08-09T22:21:45.057Z,102204.38
2022-08-09T22:24:17.000Z,102204.53
2022-08-09T22:26:51.012Z,102206.50
2022-08-09T22:29:19.288Z,102199.66
2022-08-09T22:31:56.517Z,102204.16
2022-08-09T22:34:25.723Z,102206.06
2022-08-09T22:36:57.670Z,102201.66
2022-08-09T22:39:55.951Z,102203.66
2022-08-09T22:42:21.380Z,102202.88
2022-08-09T22:45:00.337Z,102205.66
2022-08-09T22:48:12.246Z,102209.50
2022-08-09T22:50:30.640Z,102206.06
2022-08-09T22:52:58.829Z,102211.56
2022-08-09T22:55:39.624Z,102210.75
2022-08-09T22:58:31.082Z,102212.78
2022-08-09T23:01:04.248Z,102226.41
2022-08-09T23:04:03.378Z,102217.53
2022-08-09T23:06:35.230Z,102224.94
2022-08-09T23:09:06.912Z,102230.47
2022-08-09T23:11:33.737Z,102230.53
2022-08-09T23:14:00.688Z,102226.16
2022-08-09T23:16:27.476Z,102223.56
2022-08-09T23:18:54.570Z,102227.19
2022-08-09T23:21:25.113Z,102225.50
2022-08-09T23:24:06.605Z,102225.63
2022-08-09T23:26:36.034Z,102237.38
2022-08-09T23:29:05.040Z,102224.81
2022-08-09T23:31:32.180Z,102215.91
2022-08-09T23:33:59.506Z,102219.63
2022-08-09T23:36:26.828Z,102223.28
2022-08-09T23:38:53.663Z,102220.69
2022-08-09T23:41:28.530Z,102222.56
2022-08-09T23:44:00.748Z,102219.94
2022-08-09T23:46:29.013Z,102223.66
2022-08-09T23:48:56.794Z,102221.03
2022-08-09T23:51:23.979Z,102219.31
2022-08-09T23:53:52.453Z,102222.06
2022-08-09T23:56:53.216Z,102214.09
2022-08-09T23:59:09.028Z,102225.00
